Time;durP1;ratioP1;P1;durP2;ratioP2;P2;SDS_P1;SDS_P2;PMS_P1;PMS_P2;Temp;Humidity;BMP_temperature;BMP_pressure;BME280_temperature;BME280_humidity;BME280_pressure;Samples;Min_cycle;Max_cycle;Signal;HPM_P1;HPM_P2
2023/10/01 00:01:33;;;;;;;;;;;22.00;50.80;;;;;;4993943;28;19933;-64
2023/10/01 00:04:01;;;;;;;;;;;22.00;50.80;;;;;;4985379;28;19926;-64
2023/10/01 00:06:28;;;;;;;;;;;22.00;50.80;;;;;;5008993;28;20030;-64
2023/10/01 00:08:57;;;;;;;;;;;22.00;50.80;;;;;;4988003;28;19941;-64
2023/10/01 00:11:26;;;;;;;;;;;22.00;51.40;;;;;;4994285;28;19925;-64
2023/10/01 00:13:54;;;;;;;;;;;22.00;50.80;;;;;;4993568;28;19929;-64
2023/10/01 00:16:21;;;;;;;;;;;22.00;50.80;;;;;;4992922;28;19932;-64
2023/10/01 00:18:48;;;;;;;;;;;21.90;50.70;;;;;;4993352;28;19933;-63
2023/10/01 00:21:14;;;;;;;;;;;22.00;50.90;;;;;;4993973;28;20223;-64
2023/10/01 00:23:41;;;;;;;;;;;21.90;50.80;;;;;;4994075;28;19940;-64
2023/10/01 00:26:10;;;;;;;;;;;21.90;50.80;;;;;;4990109;28;19926;-63
2023/10/01 00:28:38;;;;;;;;;;;21.90;50.90;;;;;;4992879;28;20000;-64
2023/10/01 00:31:04;;;;;;;;;;;21.90;51.00;;;;;;4993377;28;19961;-63
2023/10/01 00:33:31;;;;;;;;;;;21.90;51.00;;;;;;4990475;28;19925;-63
2023/10/01 00:35:58;;;;;;;;;;;21.90;51.00;;;;;;4992791;28;19961;-64
2023/10/01 00:38:26;;;;;;;;;;;21.90;51.00;;;;;;5009962;28;20409;-63
2023/10/01 00:40:53;;;;;;;;;;;21.90;51.10;;;;;;4996139;28;20001;-64
2023/10/01 00:43:24;;;;;;;;;;;21.90;51.10;;;;;;4988690;28;19951;-63
2023/10/01 00:45:53;;;;;;;;;;;21.90;51.10;;;;;;4993182;28;19932;-63
2023/10/01 00:48:22;;;;;;;;;;;21.90;51.20;;;;;;4991947;28;19926;-64
2023/10/01 00:50:49;;;;;;;;;;;21.90;51.30;;;;;;4993763;28;20016;-63
2023/10/01 00:53:16;;;;;;;;;;;21.90;51.30;;;;;;4992947;28;20226;-63
2023/10/01 00:55:42;;;;;;;;;;;21.90;51.30;;;;;;4992995;28;19949;-64
2023/10/01 00:58:10;;;;;;;;;;;21.90;51.30;;;;;;4993083;28;19926;-63
2023/10/01 01:00:37;;;;;;;;;;;21.90;51.40;;;;;;4991440;28;19964;-64
2023/10/01 01:03:09;;;;;;;;;;;21.90;51.40;;;;;;4991545;28;19961;-63
2023/10/01 01:05:36;;;;;;;;;;;21.90;51.40;;;;;;4991444;28;19965;-63
2023/10/01 01:08:04;;;;;;;;;;;21.90;51.50;;;;;;4993814;28;19922;-64
2023/10/01 01:10:39;;;;;;;;;;;21.90;51.50;;;;;;4998850;28;19921;-64
2023/10/01 01:13:06;;;;;;;;;;;21.90;51.50;;;;;;4995234;28;19988;-64
2023/10/01 01:15:34;;;;;;;;;;;21.90;51.50;;;;;;4995945;28;19926;-63
2023/10/01 01:18:00;;;;;;;;;;;21.90;51.50;;;;;;5001184;28;19932;-64
2023/10/01 01:20:36;;;;;;;;;;;21.90;51.50;;;;;;5001722;28;19929;-64
2023/10/01 01:23:09;;;;;;;;;;;21.90;51.50;;;;;;4993903;28;19926;-64
2023/10/01 01:25:36;;;;;;;;;;;21.90;51.50;;;;;;4997762;28;19933;-63
2023/10/01 01:28:07;;;;;;;;;;;21.90;51.50;;;;;;5000122;28;20269;-64
2023/10/01 01:30:41;;;;;;;;;;;21.90;51.50;;;;;;4996823;28;19934;-64
2023/10/01 01:33:08;;;;;;;;;;;21.90;51.60;;;;;;4994762;28;20269;-63
2023/10/01 01:35:35;;;;;;;;;;;21.90;51.60;;;;;;4998133;28;19949;-63
2023/10/01 01:38:02;;;;;;;;;;;21.90;51.60;;;;;;4998107;28;19930;-64
2023/10/01 01:40:35;;;;;;;;;;;21.90;51.60;;;;;;4998788;28;19926;-64
2023/10/01 01:43:04;;;;;;;;;;;21.90;51.60;;;;;;5012300;28;19984;-64
2023/10/01 01:45:33;;;;;;;;;;;21.90;51.60;;;;;;5011375;28;19930;-63
2023/10/01 01:48:00;;;;;;;;;;;21.90;51.60;;;;;;4998720;28;19932;-63
2023/10/01 01:50:27;;;;;;;;;;;21.90;51.60;;;;;;4996403;28;19926;-63
2023/10/01 01:52:56;;;;;;;;;;;21.90;51.60;;;;;;4996065;28;19929;-63
2023/10/01 01:55:27;;;;;;;;;;;21.80;51.50;;;;;;4999063;28;19964;-63
2023/10/01 01:58:08;;;;;;;;;;;21.80;51.50;;;;;;4998800;28;19948;-64
2023/10/01 02:00:37;;;;;;;;;;;21.90;51.60;;;;;;4997758;28;19965;-63
2023/10/01 02:03:10;;;;;;;;;;;21.90;51.60;;;;;;4993513;28;19937;-64
2023/10/01 02:05:38;;;;;;;;;;;21.90;51.60;;;;;;5013637;28;19949;-64
2023/10/01 02:08:08;;;;;;;;;;;21.90;51.60;;;;;;4998055;28;19925;-64
2023/10/01 02:10:44;;;;;;;;;;;21.80;51.50;;;;;;4997967;28;19938;-64
2023/10/01 02:13:14;;;;;;;;;;;21.80;51.50;;;;;;4998337;28;19956;-64
2023/10/01 02:15:41;;;;;;;;;;;21.80;51.50;;;;;;4994793;28;20017;-64
2023/10/01 02:18:09;;;;;;;;;;;21.80;51.50;;;;;;4995211;28;19961;-64
2023/10/01 02:20:35;;;;;;;;;;;21.80;51.60;;;;;;4993572;28;20388;-64
2023/10/01 02:23:03;;;;;;;;;;;21.80;51.60;;;;;;4990181;28;19929;-64
2023/10/01 02:25:38;;;;;;;;;;;21.80;52.20;;;;;;4996473;28;19926;-64
2023/10/01 02:28:11;;;;;;;;;;;21.80;51.60;;;;;;4993254;28;19932;-64
2023/10/01 02:30:41;;;;;;;;;;;21.80;51.70;;;;;;4993876;28;19926;-62
2023/10/01 02:33:17;;;;;;;;;;;21.80;51.70;;;;;;4986697;28;19962;-61
2023/10/01 02:35:46;;;;;;;;;;;21.80;51.70;;;;;;5004068;28;20016;-61
2023/10/01 02:40:57;;;;;;;;;;;21.80;51.80;;;;;;4994647;28;19933;-62
2023/10/01 02:43:24;;;;;;;;;;;21.80;51.80;;;;;;5007263;28;20336;-61
2023/10/01 02:45:52;;;;;;;;;;;21.80;51.80;;;;;;4993470;28;20295;-61
2023/10/01 02:48:18;;;;;;;;;;;21.80;51.90;;;;;;4994632;28;19929;-62
2023/10/01 02:50:48;;;;;;;;;;;21.80;51.90;;;;;;5007641;28;19933;-61
2023/10/01 02:53:14;;;;;;;;;;;21.80;51.90;;;;;;4977102;28;20016;-61
2023/10/01 02:55:45;;;;;;;;;;;21.80;51.90;;;;;;4992963;28;19925;-62
2023/10/01 02:58:18;;;;;;;;;;;21.80;51.90;;;;;;4993131;28;19926;-61
2023/10/01 03:00:45;;;;;;;;;;;21.80;51.90;;;;;;4993476;28;19926;-62
2023/10/01 03:03:17;;;;;;;;;;;21.80;51.90;;;;;;4992399;28;20252;-64
2023/10/01 03:05:46;;;;;;;;;;;21.80;51.90;;;;;;4989919;28;20024;-64
2023/10/01 03:08:40;;;;;;;;;;;21.80;52.00;;;;;;4991945;28;19948;-64
2023/10/01 03:11:02;;;;;;;;;;;21.80;52.00;;;;;;4988223;28;19933;-64
2023/10/01 03:13:31;;;;;;;;;;;21.80;52.00;;;;;;4989571;28;19930;-65
2023/10/01 03:18:40;;;;;;;;;;;21.80;52.00;;;;;;5006957;28;19933;-64
2023/10/01 03:21:17;;;;;;;;;;;21.80;52.00;;;;;;4992819;28;19926;-63
2023/10/01 03:23:51;;;;;;;;;;;21.80;52.00;;;;;;4987422;28;20035;-64
2023/10/01 03:26:18;;;;;;;;;;;21.80;52.00;;;;;;4990637;28;19933;-63
2023/10/01 03:31:29;;;;;;;;;;;21.80;52.00;;;;;;5005484;28;19926;-63
2023/10/01 03:33:58;;;;;;;;;;;21.80;52.00;;;;;;4991866;28;19960;-63
2023/10/01 03:36:26;;;;;;;;;;;21.80;52.10;;;;;;5008500;28;19984;-64
2023/10/01 03:38:57;;;;;;;;;;;21.80;52.10;;;;;;4992176;28;19958;-63
2023/10/01 03:41:27;;;;;;;;;;;21.80;52.10;;;;;;4991368;28;20338;-63
2023/10/01 03:43:56;;;;;;;;;;;21.70;52.00;;;;;;4990506;28;20049;-64
2023/10/01 03:46:26;;;;;;;;;;;21.80;52.10;;;;;;4993183;28;20112;-64
2023/10/01 03:49:00;;;;;;;;;;;21.80;52.10;;;;;;4988601;28;20008;-64
2023/10/01 03:54:14;;;;;;;;;;;21.80;52.10;;;;;;5004805;28;19980;-64
2023/10/01 03:56:45;;;;;;;;;;;21.80;52.20;;;;;;4992475;28;19990;-63
2023/10/01 03:59:16;;;;;;;;;;;21.80;52.20;;;;;;4987058;28;19932;-63
2023/10/01 04:04:27;;;;;;;;;;;21.80;52.20;;;;;;4990762;28;20024;-64
2023/10/01 04:06:59;;;;;;;;;;;21.70;52.10;;;;;;4991658;28;19972;-63
2023/10/01 04:09:27;;;;;;;;;;;21.70;52.10;;;;;;5008677;28;19925;-64
2023/10/01 04:12:18;;;;;;;;;;;21.70;52.10;;;;;;4992941;28;19992;-64
2023/10/01 04:14:46;;;;;;;;;;;21.70;52.70;;;;;;4998250;28;19993;-64
2023/10/01 04:17:13;;;;;;;;;;;21.70;52.20;;;;;;4997304;28;19926;-64
2023/10/01 04:19:43;;;;;;;;;;;21.70;52.20;;;;;;4993485;28;19930;-64
2023/10/01 04:22:12;;;;;;;;;;;21.70;52.20;;;;;;4987815;28;20016;-64
2023/10/01 04:24:42;;;;;;;;;;;21.70;52.20;;;;;;4993404;28;19934;-64
2023/10/01 04:27:23;;;;;;;;;;;21.70;52.20;;;;;;4991070;28;19932;-64
2023/10/01 04:29:57;;;;;;;;;;;21.70;52.30;;;;;;4991076;28;19948;-64
2023/10/01 04:32:27;;;;;;;;;;;21.70;52.30;;;;;;4990437;28;19926;-64
2023/10/01 04:34:54;;;;;;;;;;;21.70;52.30;;;;;;4986830;28;19976;-63
2023/10/01 04:37:36;;;;;;;;;;;21.70;52.30;;;;;;4991622;28;19933;-64
2023/10/01 04:40:06;;;;;;;;;;;21.70;52.30;;;;;;4991197;28;19933;-64
2023/10/01 04:42:37;;;;;;;;;;;21.70;52.30;;;;;;4990356;28;19926;-64
2023/10/01 04:45:22;;;;;;;;;;;21.70;52.30;;;;;;4991574;28;19926;-64
2023/10/01 04:47:55;;;;;;;;;;;21.70;52.30;;;;;;5002784;28;19926;-64
2023/10/01 04:50:24;;;;;;;;;;;21.70;52.30;;;;;;4991732;28;20028;-64
2023/10/01 04:52:53;;;;;;;;;;;21.70;52.30;;;;;;4990156;28;19930;-64
2023/10/01 04:55:20;;;;;;;;;;;21.70;52.30;;;;;;4989045;28;19949;-64
2023/10/01 04:57:48;;;;;;;;;;;21.70;52.40;;;;;;4989432;28;20383;-64
2023/10/01 05:00:15;;;;;;;;;;;21.70;52.40;;;;;;4989497;28;19933;-64
2023/10/01 05:02:43;;;;;;;;;;;21.70;52.40;;;;;;4987651;28;19926;-64
2023/10/01 05:05:10;;;;;;;;;;;21.70;52.40;;;;;;4987955;28;19926;-64
2023/10/01 05:07:37;;;;;;;;;;;21.70;52.40;;;;;;4989322;28;19930;-64
2023/10/01 05:10:08;;;;;;;;;;;21.70;52.40;;;;;;4990046;28;19925;-64
2023/10/01 05:12:43;;;;;;;;;;;21.70;52.40;;;;;;4988121;28;19937;-64
2023/10/01 05:15:17;;;;;;;;;;;21.70;52.40;;;;;;4990495;28;19926;-64
2023/10/01 05:17:44;;;;;;;;;;;21.70;52.40;;;;;;4988727;28;19930;-64
2023/10/01 05:20:11;;;;;;;;;;;21.70;52.50;;;;;;4988243;28;19926;-63
2023/10/01 05:22:46;;;;;;;;;;;21.70;52.50;;;;;;4987254;28;19926;-62
2023/10/01 05:25:18;;;;;;;;;;;21.70;52.50;;;;;;5003785;28;20029;-62
2023/10/01 05:27:45;;;;;;;;;;;21.70;52.40;;;;;;4990301;28;19930;-62
2023/10/01 05:33:11;;;;;;;;;;;21.70;52.40;;;;;;5116762;27;20011;-61
2023/10/01 05:35:41;;;;;;;;;;;21.60;52.30;;;;;;5099132;28;20002;-61
2023/10/01 05:38:10;;;;;;;;;;;21.70;52.40;;;;;;5096665;28;19932;-61
2023/10/01 05:40:37;;;;;;;;;;;21.70;52.40;;;;;;5102776;28;19920;-61
2023/10/01 05:43:13;;;;;;;;;;;21.70;52.40;;;;;;5094518;28;20461;-61
2023/10/01 05:45:41;;;;;;;;;;;21.70;52.40;;;;;;5095889;28;19920;-61
2023/10/01 05:48:10;;;;;;;;;;;21.70;52.40;;;;;;5096492;28;19924;-61
2023/10/01 05:50:38;;;;;;;;;;;21.60;52.30;;;;;;5101351;28;19946;-61
2023/10/01 05:53:05;;;;;;;;;;;21.60;52.30;;;;;;5096624;28;19946;-61
2023/10/01 05:55:32;;;;;;;;;;;21.70;53.00;;;;;;5097791;28;20414;-61
2023/10/01 05:58:12;;;;;;;;;;;21.60;52.30;;;;;;5097998;28;19920;-61
2023/10/01 06:00:44;;;;;;;;;;;21.70;52.40;;;;;;5097183;28;19928;-62
2023/10/01 06:03:15;;;;;;;;;;;21.60;52.30;;;;;;5098200;28;19920;-61
2023/10/01 06:05:50;;;;;;;;;;;21.60;52.30;;;;;;5098165;28;19946;-61
2023/10/01 06:08:17;;;;;;;;;;;21.60;52.30;;;;;;5093868;28;20357;-61
2023/10/01 06:10:59;;;;;;;;;;;21.60;52.30;;;;;;5090710;28;19927;-61
2023/10/01 06:13:28;;;;;;;;;;;21.60;52.30;;;;;;5094826;28;19930;-61
2023/10/01 06:15:56;;;;;;;;;;;21.60;52.30;;;;;;5114337;28;19923;-61
2023/10/01 06:18:24;;;;;;;;;;;21.60;52.30;;;;;;5098109;28;19924;-61
2023/10/01 06:20:53;;;;;;;;;;;21.60;52.30;;;;;;5102294;28;19920;-62
2023/10/01 06:23:20;;;;;;;;;;;21.60;52.30;;;;;;5094983;28;19939;-61
2023/10/01 06:25:51;;;;;;;;;;;21.60;52.30;;;;;;5088446;28;19936;-61
2023/10/01 06:28:20;;;;;;;;;;;21.60;52.30;;;;;;5091505;28;19963;-61
2023/10/01 06:30:48;;;;;;;;;;;21.60;52.30;;;;;;5094476;28;19928;-61
2023/10/01 06:33:25;;;;;;;;;;;21.60;52.30;;;;;;5086645;28;19986;-61
2023/10/01 06:38:38;;;;;;;;;;;21.60;52.30;;;;;;5091070;28;19928;-61
2023/10/01 06:41:06;;;;;;;;;;;21.60;52.30;;;;;;5088208;28;19924;-61
2023/10/01 06:43:44;;;;;;;;;;;21.60;52.30;;;;;;5079480;28;19924;-62
2023/10/01 06:46:11;;;;;;;;;;;21.60;52.30;;;;;;5084105;28;19927;-61
2023/10/01 06:48:39;;;;;;;;;;;21.60;52.30;;;;;;5075813;28;20358;-61
2023/10/01 06:51:08;;;;;;;;;;;21.60;52.30;;;;;;5085183;28;19924;-61
2023/10/01 06:53:45;;;;;;;;;;;21.60;52.30;;;;;;5072193;28;19939;-62
2023/10/01 06:56:14;;;;;;;;;;;21.60;52.30;;;;;;5078746;28;19973;-62
2023/10/01 06:58:41;;;;;;;;;;;21.60;52.30;;;;;;5072864;28;19956;-62
2023/10/01 07:01:34;;;;;;;;;;;21.60;52.30;;;;;;5082625;28;20000;-61
2023/10/01 07:03:56;;;;;;;;;;;21.60;52.30;;;;;;5078560;28;19964;-61
2023/10/01 07:06:25;;;;;;;;;;;21.60;52.30;;;;;;5081714;28;19920;-61
2023/10/01 07:08:53;;;;;;;;;;;21.60;52.30;;;;;;5073614;28;19920;-61
2023/10/01 07:11:23;;;;;;;;;;;21.60;52.30;;;;;;5073450;28;19932;-62
2023/10/01 07:13:52;;;;;;;;;;;21.60;52.30;;;;;;5070863;28;19936;-61
2023/10/01 07:16:35;;;;;;;;;;;21.60;52.40;;;;;;5078694;28;19936;-61
2023/10/01 07:19:02;;;;;;;;;;;21.60;52.40;;;;;;5072273;28;20458;-62
2023/10/01 07:21:31;;;;;;;;;;;21.60;52.40;;;;;;5077246;28;19979;-61
2023/10/01 07:23:58;;;;;;;;;;;21.60;52.30;;;;;;5075474;28;20313;-61
2023/10/01 07:26:25;;;;;;;;;;;21.60;52.40;;;;;;5073675;28;19946;-61
2023/10/01 07:28:55;;;;;;;;;;;21.60;52.40;;;;;;5074073;28;19920;-62
2023/10/01 07:31:24;;;;;;;;;;;21.60;52.40;;;;;;5081643;28;19924;-61
2023/10/01 07:33:52;;;;;;;;;;;21.60;52.40;;;;;;5077192;28;19936;-61
2023/10/01 07:36:19;;;;;;;;;;;21.60;52.40;;;;;;5077776;28;19958;-61
2023/10/01 07:38:48;;;;;;;;;;;21.60;52.40;;;;;;5076117;28;19920;-62
2023/10/01 07:41:16;;;;;;;;;;;21.60;52.40;;;;;;5080046;28;19924;-61
2023/10/01 07:43:43;;;;;;;;;;;21.60;52.40;;;;;;5078088;28;19920;-61
2023/10/01 07:46:10;;;;;;;;;;;21.60;52.40;;;;;;5072724;28;19990;-62
2023/10/01 07:48:38;;;;;;;;;;;21.60;52.50;;;;;;5074396;28;19970;-62
2023/10/01 07:51:22;;;;;;;;;;;21.60;52.50;;;;;;5082106;28;20479;-62
2023/10/01 07:53:51;;;;;;;;;;;21.60;52.50;;;;;;5075775;28;20015;-62
2023/10/01 07:56:21;;;;;;;;;;;21.60;52.50;;;;;;5073653;28;19981;-62
2023/10/01 07:58:48;;;;;;;;;;;21.60;52.50;;;;;;5064613;28;19924;-62
2023/10/01 08:01:36;;;;;;;;;;;21.60;52.50;;;;;;5071992;28;19936;-62
2023/10/01 08:04:06;;;;;;;;;;;21.60;52.50;;;;;;5071488;28;19946;-62
2023/10/01 08:06:32;;;;;;;;;;;21.60;52.60;;;;;;5056088;28;19921;-61
2023/10/01 08:09:00;;;;;;;;;;;21.60;52.60;;;;;;5074049;28;19925;-62
2023/10/01 08:14:20;;;;;;;;;;;21.60;52.70;;;;;;5066607;28;19927;-62
2023/10/01 08:16:48;;;;;;;;;;;21.60;52.80;;;;;;5069533;28;19932;-62
2023/10/01 08:19:20;;;;;;;;;;;21.60;52.90;;;;;;5070528;28;19920;-62
2023/10/01 08:21:50;;;;;;;;;;;21.70;53.10;;;;;;5068559;28;19951;-62
2023/10/01 08:24:19;;;;;;;;;;;21.70;53.20;;;;;;5072112;28;19927;-61
2023/10/01 08:26:57;;;;;;;;;;;21.70;53.20;;;;;;5064208;28;19927;-61
2023/10/01 08:29:28;;;;;;;;;;;21.70;53.20;;;;;;5070637;28;20017;-61
2023/10/01 08:32:08;;;;;;;;;;;21.70;53.20;;;;;;5070361;28;19920;-61
2023/10/01 08:37:22;;;;;;;;;;;21.70;53.20;;;;;;5065365;28;19925;-61
2023/10/01 08:39:53;;;;;;;;;;;21.70;53.20;;;;;;5069424;28;20348;-61
2023/10/01 08:42:19;;;;;;;;;;;21.70;53.10;;;;;;5084717;28;20272;-61
2023/10/01 08:44:47;;;;;;;;;;;21.70;53.10;;;;;;5071359;28;19967;-62
2023/10/01 08:52:56;;;;;;;;;;;21.70;52.90;;;;;;5059473;28;19921;-61
2023/10/01 08:55:25;;;;;;;;;;;21.70;52.80;;;;;;5068168;28;20027;-62
2023/10/01 08:57:53;;;;;;;;;;;21.70;52.80;;;;;;5069113;28;19962;-62
2023/10/01 09:00:24;;;;;;;;;;;21.70;52.80;;;;;;5070458;28;19970;-62
2023/10/01 09:02:55;;;;;;;;;;;21.70;52.70;;;;;;5065845;28;19924;-61
2023/10/01 09:05:25;;;;;;;;;;;21.70;52.70;;;;;;5068238;28;19970;-62
2023/10/01 09:08:14;;;;;;;;;;;21.70;52.70;;;;;;5069857;28;19932;-61
2023/10/01 09:10:40;;;;;;;;;;;21.70;52.70;;;;;;5066346;28;20015;-62
2023/10/01 09:13:13;;;;;;;;;;;21.70;52.70;;;;;;5065250;28;19981;-62
2023/10/01 09:15:43;;;;;;;;;;;21.70;52.70;;;;;;5066896;28;19921;-61
2023/10/01 09:18:11;;;;;;;;;;;21.70;52.70;;;;;;5069918;28;19921;-62
2023/10/01 09:20:39;;;;;;;;;;;21.70;52.70;;;;;;5069931;28;20003;-62
2023/10/01 09:23:06;;;;;;;;;;;21.70;52.70;;;;;;5070967;28;19959;-62
2023/10/01 09:25:34;;;;;;;;;;;21.70;52.70;;;;;;5069675;28;19928;-62
2023/10/01 09:28:19;;;;;;;;;;;21.70;52.60;;;;;;5067396;28;19968;-62
2023/10/01 09:30:56;;;;;;;;;;;21.70;52.60;;;;;;5065488;28;19921;-62
2023/10/01 09:33:24;;;;;;;;;;;21.70;52.60;;;;;;5053083;28;19968;-61
2023/10/01 09:35:56;;;;;;;;;;;21.70;52.50;;;;;;5067329;28;19940;-62
2023/10/01 09:38:27;;;;;;;;;;;21.70;52.50;;;;;;5069288;28;19920;-63
2023/10/01 09:40:55;;;;;;;;;;;21.70;52.50;;;;;;5068959;28;19928;-62
2023/10/01 09:43:27;;;;;;;;;;;21.70;52.50;;;;;;5068364;28;19920;-62
2023/10/01 09:45:57;;;;;;;;;;;21.70;52.50;;;;;;5068752;28;19920;-62
2023/10/01 09:48:30;;;;;;;;;;;21.70;52.50;;;;;;5068384;28;19920;-63
2023/10/01 09:50:58;;;;;;;;;;;21.70;52.50;;;;;;5063307;28;19921;-63
2023/10/01 09:53:25;;;;;;;;;;;21.70;52.50;;;;;;5070027;28;19925;-62
2023/10/01 09:55:55;;;;;;;;;;;21.70;52.50;;;;;;5067506;28;20358;-62
2023/10/01 09:58:25;;;;;;;;;;;21.70;52.50;;;;;;5068824;28;19956;-62
2023/10/01 10:00:55;;;;;;;;;;;21.70;52.60;;;;;;5067197;28;19924;-62
2023/10/01 10:03:22;;;;;;;;;;;21.70;52.60;;;;;;5069364;28;19947;-61
2023/10/01 10:05:49;;;;;;;;;;;21.70;52.70;;;;;;5068226;28;19924;-62
2023/10/01 10:08:15;;;;;;;;;;;21.70;52.70;;;;;;5068826;28;19921;-61
2023/10/01 10:10:48;;;;;;;;;;;21.70;52.80;;;;;;5070925;28;19925;-62
2023/10/01 10:13:38;;;;;;;;;;;21.70;52.90;;;;;;5069193;28;20037;-62
2023/10/01 10:19:09;;;;;;;;;;;21.70;53.00;;;;;;5063117;28;19920;-61
2023/10/01 10:22:05;;;;;;;;;;;21.80;53.10;;;;;;5071205;28;19920;-63
2023/10/01 10:24:32;;;;;;;;;;;21.70;53.10;;;;;;5059723;28;19931;-62
2023/10/01 10:27:03;;;;;;;;;;;21.70;53.10;;;;;;5092149;28;19920;-62
2023/10/01 10:29:46;;;;;;;;;;;21.80;53.20;;;;;;5087255;28;20006;-62
2023/10/01 10:32:14;;;;;;;;;;;21.80;53.30;;;;;;5084021;28;19924;-62
2023/10/01 10:34:48;;;;;;;;;;;21.80;53.30;;;;;;5082134;28;19920;-62
2023/10/01 10:37:33;;;;;;;;;;;21.80;53.30;;;;;;5082390;28;19924;-62
2023/10/01 10:40:04;;;;;;;;;;;21.80;53.40;;;;;;5085054;28;19920;-63
2023/10/01 10:42:30;;;;;;;;;;;21.80;53.40;;;;;;5075856;28;20014;-63
2023/10/01 10:45:26;;;;;;;;;;;21.80;53.40;;;;;;5066037;28;19947;-63
2023/10/01 10:47:58;;;;;;;;;;;21.80;53.40;;;;;;5084177;28;20003;-63
2023/10/01 10:50:49;;;;;;;;;;;21.80;53.60;;;;;;5069758;28;19970;-63
2023/10/01 10:53:15;;;;;;;;;;;21.80;53.60;;;;;;5049575;28;19970;-63
2023/10/01 10:55:55;;;;;;;;;;;21.80;53.60;;;;;;5072479;28;19925;-63
2023/10/01 10:58:24;;;;;;;;;;;21.80;53.60;;;;;;5071455;28;19921;-62
2023/10/01 11:00:51;;;;;;;;;;;21.90;53.70;;;;;;5075922;28;19920;-61
2023/10/01 11:03:40;;;;;;;;;;;21.90;53.80;;;;;;5076308;28;19991;-61
2023/10/01 11:06:15;;;;;;;;;;;21.80;53.80;;;;;;5073915;28;19920;-60
2023/10/01 11:08:50;;;;;;;;;;;21.90;53.90;;;;;;5076839;28;19926;-62
2023/10/01 11:11:18;;;;;;;;;;;21.80;53.90;;;;;;5086721;28;19947;-62
2023/10/01 11:13:46;;;;;;;;;;;21.90;54.00;;;;;;5070775;28;20019;-61
2023/10/01 11:16:15;;;;;;;;;;;21.90;54.10;;;;;;5065641;28;19985;-62
2023/10/01 11:18:44;;;;;;;;;;;21.90;54.10;;;;;;5077133;28;19920;-62
2023/10/01 11:21:20;;;;;;;;;;;21.90;54.10;;;;;;5069954;28;19921;-62
2023/10/01 11:23:49;;;;;;;;;;;21.90;54.10;;;;;;5072026;28;19920;-62
2023/10/01 11:26:27;;;;;;;;;;;21.80;54.20;;;;;;5066956;28;19948;-61
2023/10/01 11:28:57;;;;;;;;;;;21.90;54.20;;;;;;5075032;28;19925;-61
2023/10/01 11:31:24;;;;;;;;;;;21.90;54.30;;;;;;5074307;28;20004;-62
2023/10/01 11:34:03;;;;;;;;;;;21.90;54.40;;;;;;5078148;28;19928;-62
2023/10/01 11:36:36;;;;;;;;;;;21.90;54.50;;;;;;5078851;28;19920;-63
2023/10/01 11:39:04;;;;;;;;;;;21.90;54.50;;;;;;5070201;28;20659;-62
2023/10/01 11:41:38;;;;;;;;;;;21.90;54.50;;;;;;5075960;28;19928;-63
2023/10/01 11:44:06;;;;;;;;;;;21.90;54.50;;;;;;5069998;28;19931;-62
2023/10/01 11:46:34;;;;;;;;;;;21.90;54.60;;;;;;5076581;28;20500;-62
2023/10/01 11:49:15;;;;;;;;;;;21.90;54.60;;;;;;5071581;28;20381;-62
2023/10/01 11:51:45;;;;;;;;;;;21.90;54.70;;;;;;5064086;28;20347;-63
2023/10/01 11:54:13;;;;;;;;;;;21.90;54.70;;;;;;5084684;28;20015;-62
2023/10/01 11:56:41;;;;;;;;;;;21.90;54.80;;;;;;5071843;28;19921;-63
2023/10/01 11:59:10;;;;;;;;;;;21.90;54.80;;;;;;5062666;28;19921;-63
2023/10/01 12:01:45;;;;;;;;;;;21.90;54.90;;;;;;5066231;28;20227;-63
2023/10/01 12:04:21;;;;;;;;;;;21.90;55.10;;;;;;5066987;28;19931;-63
2023/10/01 12:06:50;;;;;;;;;;;21.90;55.10;;;;;;5058530;28;20016;-63
2023/10/01 12:09:18;;;;;;;;;;;21.90;55.20;;;;;;5066546;28;19920;-63
2023/10/01 12:12:02;;;;;;;;;;;21.90;55.30;;;;;;5070851;28;19954;-62
2023/10/01 12:14:29;;;;;;;;;;;21.90;55.40;;;;;;5070799;28;19925;-63
2023/10/01 12:16:57;;;;;;;;;;;21.90;55.40;;;;;;5068725;28;19924;-62
2023/10/01 12:19:26;;;;;;;;;;;21.90;55.50;;;;;;5071316;28;19950;-63
2023/10/01 12:22:06;;;;;;;;;;;21.90;55.40;;;;;;5067247;28;19920;-62
2023/10/01 12:24:39;;;;;;;;;;;21.90;55.50;;;;;;5072765;28;19924;-62
2023/10/01 12:27:07;;;;;;;;;;;21.90;55.50;;;;;;5085033;28;19921;-63
2023/10/01 12:29:42;;;;;;;;;;;21.90;55.60;;;;;;5066642;28;19974;-63
2023/10/01 12:32:10;;;;;;;;;;;21.90;55.60;;;;;;5062211;28;20517;-63
2023/10/01 12:34:38;;;;;;;;;;;21.90;55.70;;;;;;5067797;28;20015;-61
2023/10/01 12:37:32;;;;;;;;;;;21.90;55.80;;;;;;5071009;28;19970;-61
2023/10/01 12:40:13;;;;;;;;;;;21.90;55.80;;;;;;5062458;28;20357;-61
2023/10/01 12:42:39;;;;;;;;;;;21.90;55.90;;;;;;5054807;28;19963;-61
2023/10/01 12:45:14;;;;;;;;;;;21.90;56.00;;;;;;5061529;28;19966;-61
2023/10/01 12:47:50;;;;;;;;;;;21.90;56.10;;;;;;5062839;28;19920;-61
2023/10/01 12:50:26;;;;;;;;;;;21.90;56.10;;;;;;5061510;28;19920;-61
2023/10/01 12:53:18;;;;;;;;;;;21.90;56.10;;;;;;5063743;28;19925;-61
2023/10/01 12:55:42;;;;;;;;;;;21.90;56.20;;;;;;5060120;28;20401;-61
2023/10/01 12:58:07;;;;;;;;;;;21.90;56.40;;;;;;5060103;28;19952;-61
2023/10/01 13:00:44;;;;;;;;;;;21.90;56.40;;;;;;5061257;28;19998;-61
2023/10/01 13:03:17;;;;;;;;;;;21.90;56.50;;;;;;5063596;28;19920;-61
2023/10/01 13:05:50;;;;;;;;;;;21.90;56.50;;;;;;5062352;28;20506;-61
2023/10/01 13:08:27;;;;;;;;;;;21.90;56.60;;;;;;5066796;28;19932;-62
2023/10/01 13:10:55;;;;;;;;;;;21.90;56.60;;;;;;5050603;28;19932;-62
2023/10/01 13:13:29;;;;;;;;;;;21.90;57.20;;;;;;5067702;28;20487;-62
2023/10/01 13:15:59;;;;;;;;;;;21.90;56.70;;;;;;5063223;28;19943;-62
2023/10/01 13:18:28;;;;;;;;;;;21.90;56.70;;;;;;5069350;28;19924;-62
2023/10/01 13:21:06;;;;;;;;;;;21.90;56.70;;;;;;5069918;28;20001;-62
2023/10/01 13:23:41;;;;;;;;;;;21.90;56.80;;;;;;5061164;28;19928;-62
2023/10/01 13:26:15;;;;;;;;;;;21.90;56.80;;;;;;5068917;28;19932;-62
2023/10/01 13:28:46;;;;;;;;;;;21.90;56.90;;;;;;5070288;28;19978;-62
2023/10/01 13:31:35;;;;;;;;;;;21.90;56.90;;;;;;5070195;28;19924;-63
2023/10/01 13:34:09;;;;;;;;;;;21.90;56.90;;;;;;5050281;28;19947;-63
2023/10/01 13:36:50;;;;;;;;;;;21.90;57.00;;;;;;5070048;28;19959;-63
2023/10/01 13:39:26;;;;;;;;;;;21.90;57.00;;;;;;5070621;28;20085;-63
2023/10/01 14:12:09;;;;;;;;;;;21.90;57.30;;;;;;5072717;28;19928;-62
2023/10/01 14:14:35;;;;;;;;;;;22.00;57.40;;;;;;5069314;28;19932;-62
2023/10/01 14:17:13;;;;;;;;;;;21.90;57.30;;;;;;5073955;28;20447;-63
2023/10/01 14:19:41;;;;;;;;;;;22.00;57.40;;;;;;5079216;28;19948;-62
2023/10/01 14:22:18;;;;;;;;;;;22.00;57.40;;;;;;5069185;28;20015;-62
2023/10/01 14:24:46;;;;;;;;;;;22.00;57.40;;;;;;5070417;28;19920;-62
2023/10/01 14:27:24;;;;;;;;;;;22.00;57.40;;;;;;5070029;28;19920;-62
2023/10/01 14:30:00;;;;;;;;;;;22.00;57.50;;;;;;5074998;28;19920;-63
2023/10/01 14:32:34;;;;;;;;;;;22.00;57.50;;;;;;5073741;28;20289;-62
2023/10/01 14:35:05;;;;;;;;;;;21.90;57.40;;;;;;5062863;28;19920;-62
2023/10/01 14:37:32;;;;;;;;;;;22.00;57.50;;;;;;5065354;28;19925;-62
2023/10/01 14:40:13;;;;;;;;;;;22.00;57.50;;;;;;5073886;28;19967;-62
2023/10/01 14:42:40;;;;;;;;;;;22.00;57.60;;;;;;5067818;28;19921;-62
2023/10/01 14:45:07;;;;;;;;;;;22.00;57.60;;;;;;5066126;28;19948;-62
2023/10/01 14:47:35;;;;;;;;;;;22.00;57.60;;;;;;5071407;28;19924;-62
2023/10/01 14:50:01;;;;;;;;;;;22.00;57.70;;;;;;5068123;28;19935;-62
2023/10/01 14:52:28;;;;;;;;;;;21.90;57.50;;;;;;5073306;28;19928;-62
2023/10/01 14:55:01;;;;;;;;;;;22.00;57.60;;;;;;5068060;28;19928;-62
2023/10/01 14:57:29;;;;;;;;;;;22.00;57.70;;;;;;5070128;28;19920;-62
2023/10/01 14:59:56;;;;;;;;;;;22.00;57.70;;;;;;5063620;28;19947;-63
2023/10/01 15:02:23;;;;;;;;;;;22.00;57.70;;;;;;5069094;28;20380;-62
2023/10/01 15:04:50;;;;;;;;;;;22.00;57.70;;;;;;5052385;28;19920;-62
2023/10/01 15:07:17;;;;;;;;;;;21.90;57.60;;;;;;5059604;28;19920;-62
2023/10/01 15:09:44;;;;;;;;;;;22.00;57.70;;;;;;5065714;28;19920;-62
2023/10/01 15:12:26;;;;;;;;;;;22.00;57.80;;;;;;5065495;28;19924;-62
2023/10/01 15:14:54;;;;;;;;;;;22.00;57.80;;;;;;5067778;28;19921;-62
2023/10/01 15:17:21;;;;;;;;;;;22.00;57.80;;;;;;5061199;28;19956;-62
2023/10/01 15:19:49;;;;;;;;;;;22.00;57.80;;;;;;5062204;28;19927;-62
2023/10/01 15:22:17;;;;;;;;;;;22.00;57.80;;;;;;5067595;28;20182;-62
2023/10/01 15:24:44;;;;;;;;;;;22.00;57.80;;;;;;5064993;28;19927;-62
2023/10/01 15:27:12;;;;;;;;;;;22.00;57.80;;;;;;5061909;28;19927;-62
2023/10/01 15:29:39;;;;;;;;;;;22.00;57.80;;;;;;5062939;28;19920;-62
2023/10/01 15:32:14;;;;;;;;;;;22.00;57.90;;;;;;5073634;28;20324;-62
2023/10/01 15:34:41;;;;;;;;;;;22.00;57.90;;;;;;5061991;28;19921;-62
2023/10/01 15:37:11;;;;;;;;;;;22.00;57.90;;;;;;5067914;28;19920;-62
2023/10/01 15:39:38;;;;;;;;;;;22.00;57.90;;;;;;5063922;28;19990;-62
2023/10/01 15:42:15;;;;;;;;;;;22.00;57.90;;;;;;5073168;28;19924;-62